createdAt,value
2018-08-22T00:00:33.584Z,48.27
2018-08-22T00:05:26.050Z,49.05
2018-08-22T00:10:18.974Z,49.35
2018-08-22T00:15:11.558Z,48.83
2018-08-22T00:20:04.125Z,49.51
2018-08-22T00:24:56.606Z,50.05
2018-08-22T00:29:49.088Z,50.38
2018-08-22T00:34:41.589Z,49.96
2018-08-22T00:39:34.576Z,51.21
2018-08-22T00:44:27.099Z,50.64
2018-08-22T00:49:19.569Z,50.97
2018-08-22T00:54:12.026Z,50.96
2018-08-22T00:59:04.530Z,51.82
2018-08-22T01:03:57.172Z,51.85
2018-08-22T01:08:49.608Z,52.23
2018-08-22T01:13:48.916Z,52.15
2018-08-22T01:18:41.369Z,51.75
2018-08-22T01:23:33.826Z,52.42
2018-08-22T01:28:26.278Z,53.08
2018-08-22T01:33:18.863Z,53.09
2018-08-22T01:38:11.424Z,52.67
2018-08-22T01:43:03.941Z,52.72
2018-08-22T01:47:56.419Z,53.14
2018-08-22T01:52:48.941Z,53.20
2018-08-22T01:57:41.458Z,53.56
2018-08-22T02:02:33.954Z,53.94
2018-08-22T02:07:26.451Z,53.59
2018-08-22T02:12:18.897Z,54.05
2018-08-22T02:17:11.403Z,54.50
2018-08-22T02:22:03.883Z,54.23
2018-08-22T02:26:56.515Z,54.51
2018-08-22T02:31:49.227Z,54.57
2018-08-22T02:36:41.635Z,55.34
2018-08-22T02:41:34.085Z,54.97
2018-08-22T02:46:26.672Z,55.55
2018-08-22T02:51:19.154Z,55.21
2018-08-22T02:56:11.606Z,55.85
2018-08-22T03:01:04.100Z,56.12
2018-08-22T03:05:56.575Z,56.09
2018-08-22T03:10:49.092Z,55.74
2018-08-22T03:15:41.596Z,55.79
2018-08-22T03:20:34.082Z,56.19
2018-08-22T03:25:26.588Z,56.24
2018-08-22T03:30:19.084Z,55.93
2018-08-22T03:35:11.561Z,56.80
2018-08-22T03:40:04.007Z,56.04
2018-08-22T03:44:56.439Z,57.06
2018-08-22T03:49:48.956Z,56.27
2018-08-22T03:54:41.400Z,56.81
2018-08-22T03:59:33.906Z,56.93
2018-08-22T04:04:26.495Z,56.97
2018-08-22T04:09:19.024Z,57.11
2018-08-22T04:14:11.503Z,57.60
2018-08-22T04:19:04.209Z,58.00
2018-08-22T04:23:56.735Z,57.18
2018-08-22T04:28:49.245Z,57.51
2018-08-22T04:33:41.801Z,57.41
2018-08-22T04:38:34.297Z,57.86
2018-08-22T04:43:26.795Z,58.24
2018-08-22T04:48:19.338Z,57.73
2018-08-22T04:53:11.836Z,58.34
2018-08-22T04:58:04.481Z,58.12
2018-08-22T05:02:57.039Z,58.13
2018-08-22T05:07:49.544Z,58.41
2018-08-22T05:12:42.095Z,58.71
2018-08-22T05:17:34.935Z,58.82
2018-08-22T05:22:27.504Z,58.87
2018-08-22T05:27:19.992Z,58.53
2018-08-22T05:32:12.997Z,59.14
2018-08-22T05:37:05.579Z,58.66
2018-08-22T05:41:58.017Z,58.84
2018-08-22T05:46:50.613Z,58.87
2018-08-22T05:51:43.178Z,58.35
2018-08-22T05:56:35.731Z,58.55
2018-08-22T06:01:28.308Z,58.59
2018-08-22T06:06:20.850Z,58.90
2018-08-22T06:11:13.338Z,59.39
2018-08-22T06:16:06.790Z,59.70
2018-08-22T06:20:59.411Z,59.42
2018-08-22T06:25:51.950Z,59.67
2018-08-22T06:30:44.586Z,59.28
2018-08-22T06:35:37.255Z,58.36
2018-08-22T06:40:29.815Z,58.26
2018-08-22T06:45:22.357Z,58.27
2018-08-22T06:50:14.922Z,58.79
2018-08-22T06:55:07.491Z,55.75
2018-08-22T07:00:00.090Z,51.72
2018-08-22T07:04:52.605Z,47.57
2018-08-22T07:09:45.135Z,44.21
2018-08-22T07:14:37.663Z,42.70
2018-08-22T07:19:30.216Z,39.78
2018-08-22T07:24:22.897Z,39.91
2018-08-22T07:29:15.436Z,38.36
2018-08-22T07:34:07.912Z,37.13
2018-08-22T07:39:01.213Z,36.22
2018-08-22T07:43:53.856Z,35.96
2018-08-22T07:48:46.490Z,36.29
2018-08-22T07:53:39.043Z,36.18
2018-08-22T07:58:31.588Z,36.44
2018-08-22T08:03:24.225Z,36.08
2018-08-22T08:08:16.909Z,37.31
2018-08-22T08:13:29.180Z,36.86
2018-08-22T08:18:21.744Z,37.11
2018-08-22T08:23:14.467Z,36.74
2018-08-22T08:28:06.944Z,37.67
2018-08-22T08:32:59.425Z,37.54
2018-08-22T08:37:51.994Z,37.45
2018-08-22T08:42:44.543Z,37.20
2018-08-22T08:47:37.133Z,35.67
2018-08-22T08:52:30.927Z,36.23
2018-08-22T08:57:24.530Z,35.53
2018-08-22T09:02:17.067Z,35.22
2018-08-22T09:07:09.583Z,35.06
2018-08-22T09:12:02.441Z,36.08
2018-08-22T09:16:55.545Z,34.93
2018-08-22T09:21:48.409Z,35.01
2018-08-22T09:26:41.484Z,36.39
2018-08-22T09:31:34.107Z,35.95
2018-08-22T09:36:26.815Z,35.57
2018-08-22T09:41:19.626Z,34.53
2018-08-22T09:46:12.145Z,34.80
2018-08-22T09:51:05.116Z,35.17
2018-08-22T09:55:57.623Z,34.30
2018-08-22T10:01:21.608Z,34.94
2018-08-22T10:06:27.846Z,33.58
2018-08-22T10:11:20.358Z,34.08
2018-08-22T10:16:12.849Z,33.96
2018-08-22T10:21:05.374Z,33.59
2018-08-22T10:25:57.978Z,32.58
2018-08-22T10:30:53.431Z,32.15
2018-08-22T10:35:45.931Z,32.78
2018-08-22T10:40:38.524Z,32.60
2018-08-22T10:45:31.288Z,31.94
2018-08-22T10:50:24.107Z,31.59
2018-08-22T10:55:16.719Z,32.44
2018-08-22T11:00:10.135Z,31.30
2018-08-22T11:05:02.683Z,30.63
2018-08-22T11:09:55.321Z,30.74
2018-08-22T11:14:47.936Z,31.56
2018-08-22T11:19:40.640Z,31.20
2018-08-22T11:24:50.871Z,30.83
2018-08-22T11:30:01.184Z,30.25
2018-08-22T11:34:52.501Z,30.37
2018-08-22T11:39:46.573Z,30.76
2018-08-22T11:44:39.178Z,30.29
2018-08-22T11:49:32.203Z,29.73
2018-08-22T11:54:24.776Z,29.00
2018-08-22T11:59:17.603Z,28.70
2018-08-22T12:04:10.299Z,29.83
2018-08-22T12:09:04.419Z,29.24
2018-08-22T12:13:57.242Z,30.11
2018-08-22T12:18:49.723Z,28.82
2018-08-22T12:23:42.337Z,28.85
2018-08-22T12:28:34.859Z,29.02
2018-08-22T12:33:27.451Z,28.16
2018-08-22T12:38:19.973Z,27.75
2018-08-22T12:43:12.485Z,27.71
2018-08-22T12:48:05.144Z,27.87
2018-08-22T12:52:57.680Z,27.90
2018-08-22T12:57:50.201Z,27.75
2018-08-22T13:02:42.894Z,27.83
2018-08-22T13:07:35.454Z,27.72
2018-08-22T13:12:28.611Z,27.14
2018-08-22T13:17:21.208Z,26.24
2018-08-22T13:22:14.136Z,26.79
2018-08-22T13:27:06.656Z,25.77
2018-08-22T13:31:59.276Z,26.52
2018-08-22T13:36:51.806Z,26.93
2018-08-22T13:41:44.449Z,26.55
2018-08-22T13:46:36.919Z,26.33
2018-08-22T13:51:29.494Z,26.64
2018-08-22T13:56:22.096Z,26.22
2018-08-22T14:01:14.777Z,26.25
2018-08-22T14:06:16.074Z,26.29
2018-08-22T14:11:08.479Z,26.61
2018-08-22T14:16:01.043Z,25.95
2018-08-22T14:20:53.693Z,26.87
2018-08-22T14:25:46.236Z,26.27
2018-08-22T14:30:38.742Z,26.83
2018-08-22T14:35:31.194Z,26.82
2018-08-22T14:40:23.705Z,26.22
2018-08-22T14:45:16.933Z,26.57
2018-08-22T14:50:09.600Z,26.57
2018-08-22T14:55:02.797Z,27.65
2018-08-22T14:59:55.351Z,26.59
2018-08-22T15:04:47.869Z,26.85
2018-08-22T15:09:40.366Z,27.68
2018-08-22T15:14:32.896Z,27.24
2018-08-22T15:19:25.563Z,26.90
2018-08-22T15:24:17.996Z,25.79
2018-08-22T15:29:10.484Z,26.36
2018-08-22T15:34:02.983Z,26.18
2018-08-22T15:38:55.396Z,27.07
2018-08-22T15:43:48.154Z,26.68
2018-08-22T15:48:40.720Z,27.35
2018-08-22T15:53:33.435Z,28.20
2018-08-22T15:58:25.940Z,27.09
2018-08-22T16:03:18.787Z,27.10
2018-08-22T16:08:11.915Z,27.26
2018-08-22T16:13:05.615Z,27.52
2018-08-22T16:17:58.414Z,27.09
2018-08-22T16:22:50.900Z,28.00
2018-08-22T16:27:48.848Z,26.96
2018-08-22T16:32:41.329Z,27.43
2018-08-22T16:37:33.836Z,28.07
2018-08-22T16:42:30.176Z,27.91
2018-08-22T16:47:27.415Z,28.63
2018-08-22T16:52:20.057Z,28.40
2018-08-22T16:57:12.542Z,28.17
2018-08-22T17:02:05.666Z,28.69
2018-08-22T17:07:02.831Z,27.82
2018-08-22T17:11:55.256Z,28.21
2018-08-22T17:16:47.762Z,28.78
2018-08-22T17:21:40.309Z,28.50
2018-08-22T17:26:32.804Z,29.61
2018-08-22T17:31:26.674Z,30.21
2018-08-22T17:36:19.286Z,31.01
2018-08-22T17:41:11.983Z,30.44
2018-08-22T17:46:07.507Z,30.80
2018-08-22T17:51:00.139Z,30.78
2018-08-22T17:55:52.624Z,30.64
2018-08-22T18:00:45.135Z,29.85
2018-08-22T18:05:37.659Z,31.14
2018-08-22T18:10:33.325Z,31.20
2018-08-22T18:15:25.865Z,30.75
2018-08-22T18:20:18.507Z,30.98
2018-08-22T18:25:10.992Z,31.82
2018-08-22T18:30:03.547Z,32.34
2018-08-22T18:35:05.184Z,31.58
2018-08-22T18:40:10.319Z,32.90
2018-08-22T18:45:02.832Z,33.20
2018-08-22T18:49:55.343Z,33.79
2018-08-22T18:54:47.974Z,33.41
2018-08-22T18:59:40.447Z,34.18
2018-08-22T19:04:32.904Z,34.52
2018-08-22T19:09:25.363Z,34.32
2018-08-22T19:14:48.366Z,34.34
2018-08-22T19:19:43.676Z,35.12
2018-08-22T19:24:36.136Z,34.87
2018-08-22T19:29:28.685Z,35.83
2018-08-22T19:34:21.244Z,35.21
2018-08-22T19:39:13.744Z,40.90
2018-08-22T19:44:06.220Z,40.80
2018-08-22T19:49:00.249Z,39.86
2018-08-22T19:54:03.491Z,40.01
2018-08-22T19:58:56.309Z,40.35
2018-08-22T20:03:52.919Z,40.28
2018-08-22T20:08:45.371Z,40.56
2018-08-22T20:13:48.879Z,40.19
2018-08-22T20:18:41.447Z,39.59
2018-08-22T20:23:34.226Z,40.36
2018-08-22T20:28:26.769Z,39.06
2018-08-22T20:33:19.312Z,39.97
2018-08-22T20:38:12.628Z,39.46
2018-08-22T20:43:07.476Z,39.87
2018-08-22T20:48:05.821Z,40.21
2018-08-22T20:53:00.416Z,39.50
2018-08-22T20:57:52.928Z,39.18
2018-08-22T21:02:45.452Z,39.29
2018-08-22T21:07:38.668Z,39.77
2018-08-22T21:12:31.106Z,39.71
2018-08-22T21:17:23.618Z,39.68
2018-08-22T21:22:27.427Z,39.89
2018-08-22T21:27:19.891Z,39.36
2018-08-22T21:32:12.353Z,39.84
2018-08-22T21:37:20.983Z,41.16
2018-08-22T21:42:15.587Z,41.16
2018-08-22T21:47:08.127Z,40.81
2018-08-22T21:52:00.958Z,41.34
2018-08-22T21:56:53.817Z,41.67
2018-08-22T22:01:52.060Z,42.20
2018-08-22T22:06:44.736Z,42.49
2018-08-22T22:11:37.224Z,42.17
2018-08-22T22:16:30.733Z,43.36
2018-08-22T22:21:23.232Z,42.33
2018-08-22T22:26:17.064Z,43.45
2018-08-22T22:31:11.403Z,43.31
2018-08-22T22:36:03.919Z,43.21
2018-08-22T22:40:56.420Z,43.11
2018-08-22T22:45:49.240Z,43.79
2018-08-22T22:50:41.689Z,43.29
2018-08-22T22:55:34.215Z,44.13
2018-08-22T23:00:28.963Z,44.18
2018-08-22T23:05:21.486Z,43.78
2018-08-22T23:10:14.589Z,44.13
2018-08-22T23:15:09.796Z,44.49
2018-08-22T23:20:31.676Z,45.09
2018-08-22T23:25:24.493Z,44.88
2018-08-22T23:30:24.212Z,45.04
2018-08-22T23:35:25.966Z,45.18
2018-08-22T23:40:18.782Z,45.02
2018-08-22T23:45:11.642Z,45.84
2018-08-22T23:50:04.341Z,45.95
2018-08-22T23:54:56.825Z,45.43
2018-08-22T23:59:49.282Z,45.91
